createdAt,value
2022-12-08T00:01:21.746Z,94207.84
2022-12-08T00:03:48.875Z,94209.72
2022-12-08T00:06:47.058Z,94213.31
2022-12-08T00:09:29.126Z,94213.16
2022-12-08T00:11:59.834Z,94212.13
2022-12-08T00:14:35.894Z,94214.66
2022-12-08T00:17:04.418Z,94217.22
2022-12-08T00:19:33.111Z,94215.63
2022-12-08T00:22:00.034Z,94220.00
2022-12-08T00:24:33.418Z,94220.38
2022-12-08T00:27:00.384Z,94215.78
2022-12-08T00:29:27.571Z,94219.91
2022-12-08T00:31:54.461Z,94216.34
2022-12-08T00:34:21.391Z,94203.94
2022-12-08T00:36:48.945Z,94199.06
2022-12-08T00:39:17.889Z,94198.59
2022-12-08T00:42:03.584Z,94183.03
2022-12-08T00:44:30.334Z,94176.19
2022-12-08T00:46:57.304Z,94165.06
2022-12-08T00:49:24.049Z,94184.69
2022-12-08T00:51:50.904Z,94189.13
2022-12-08T00:54:19.047Z,94194.59
2022-12-08T00:56:46.545Z,94184.63
2022-12-08T00:59:14.418Z,94197.63
2022-12-08T01:01:41.606Z,94183.19
2022-12-08T01:04:11.910Z,94195.97
2022-12-08T01:06:39.418Z,94186.19
2022-12-08T01:09:07.774Z,94176.38
2022-12-08T01:11:36.152Z,94167.25
2022-12-08T01:14:04.117Z,94187.16
2022-12-08T01:16:34.294Z,94185.19
2022-12-08T01:19:01.775Z,94190.38
2022-12-08T01:21:29.308Z,94174.47
2022-12-08T01:23:56.278Z,94179.38
2022-12-08T01:26:23.025Z,94178.19
2022-12-08T01:28:49.795Z,94187.38
2022-12-08T01:31:21.370Z,94184.66
2022-12-08T01:33:49.252Z,94169.94
2022-12-08T01:36:25.177Z,94161.25
2022-12-08T01:38:52.942Z,94177.75
2022-12-08T01:41:22.758Z,94179.66
2022-12-08T01:44:24.819Z,94180.63
2022-12-08T01:46:53.684Z,94182.91
2022-12-08T01:49:31.125Z,94181.31
2022-12-08T01:52:25.790Z,94187.81
2022-12-08T01:55:06.473Z,94174.31
2022-12-08T01:57:55.872Z,94176.06
2022-12-08T02:00:23.408Z,94177.63
2022-12-08T02:02:56.588Z,94178.41
2022-12-08T02:05:30.733Z,94164.47
2022-12-08T02:07:58.762Z,94152.41
2022-12-08T02:10:29.492Z,94150.75
2022-12-08T02:12:58.357Z,94164.44
2022-12-08T02:15:37.012Z,94151.22
2022-12-08T02:18:28.184Z,94162.53
2022-12-08T02:20:57.745Z,94146.25
2022-12-08T02:23:33.901Z,94158.38
2022-12-08T02:26:19.832Z,94163.66
2022-12-08T02:29:08.231Z,94160.53
2022-12-08T02:31:55.673Z,94161.06
2022-12-08T02:34:40.320Z,94149.50
2022-12-08T02:37:21.119Z,94149.75
2022-12-08T02:40:07.249Z,94145.44
2022-12-08T02:43:04.791Z,94139.31
2022-12-08T02:46:02.456Z,94151.31
2022-12-08T02:48:29.875Z,94134.69
2022-12-08T02:50:56.618Z,94142.50
2022-12-08T02:53:23.445Z,94135.75
2022-12-08T02:56:01.618Z,94136.22
2022-12-08T02:58:53.235Z,94124.09
2022-12-08T03:02:05.900Z,94108.50
2022-12-08T03:04:55.574Z,94091.09
2022-12-08T03:07:40.358Z,94103.19
2022-12-08T03:10:13.581Z,94107.13
2022-12-08T03:12:58.349Z,94101.69
2022-12-08T03:15:25.134Z,94101.13
2022-12-08T03:17:56.933Z,94102.63
2022-12-08T03:20:25.981Z,94105.19
2022-12-08T03:22:55.917Z,94098.81
2022-12-08T03:25:25.988Z,94115.22
2022-12-08T03:27:53.864Z,94105.19
2022-12-08T03:30:20.925Z,94089.66
2022-12-08T03:33:04.316Z,94103.50
2022-12-08T03:35:34.585Z,94104.69
2022-12-08T03:38:10.829Z,94107.16
2022-12-08T03:40:38.971Z,94109.53
2022-12-08T03:43:06.337Z,94103.38
2022-12-08T03:45:34.563Z,94107.28
2022-12-08T03:48:01.449Z,94081.59
2022-12-08T03:50:28.522Z,94092.69
2022-12-08T03:52:55.325Z,94088.88
2022-12-08T03:55:22.042Z,94091.19
2022-12-08T03:57:49.633Z,94096.81
2022-12-08T04:00:17.077Z,94088.03
2022-12-08T04:02:44.095Z,94092.03
2022-12-08T04:05:11.014Z,94092.28
2022-12-08T04:07:37.907Z,94094.56
2022-12-08T04:10:06.184Z,94073.66
2022-12-08T04:12:33.166Z,94084.41
2022-12-08T04:14:59.850Z,94081.34
2022-12-08T04:17:26.618Z,94077.34
2022-12-08T04:19:53.322Z,94076.56
2022-12-08T04:22:21.366Z,94089.63
2022-12-08T04:24:48.244Z,94080.09
2022-12-08T04:27:14.968Z,94079.06
2022-12-08T04:29:41.666Z,94076.78
2022-12-08T04:32:08.285Z,94078.63
2022-12-08T04:34:35.851Z,94070.22
2022-12-08T04:37:02.579Z,94083.38
2022-12-08T04:39:29.639Z,94076.41
2022-12-08T04:41:56.379Z,94075.75
2022-12-08T04:44:23.130Z,94077.44
2022-12-08T04:46:50.067Z,94067.59
2022-12-08T04:49:16.789Z,94061.13
2022-12-08T04:51:43.533Z,94057.16
2022-12-08T04:54:10.213Z,94060.16
2022-12-08T04:56:37.090Z,94060.66
2022-12-08T04:59:05.115Z,94062.09
2022-12-08T05:01:32.173Z,94050.53
2022-12-08T05:03:59.080Z,94064.00
2022-12-08T05:06:25.945Z,94066.00
2022-12-08T05:08:52.728Z,94068.94
2022-12-08T05:11:20.243Z,94052.91
2022-12-08T05:13:47.560Z,94063.22
2022-12-08T05:16:15.967Z,94057.63
2022-12-08T05:18:43.423Z,94054.50
2022-12-08T05:21:10.578Z,94069.19
2022-12-08T05:23:37.319Z,94056.25
2022-12-08T05:26:05.540Z,94054.06
2022-12-08T05:28:42.618Z,94053.22
2022-12-08T05:31:11.753Z,94060.25
2022-12-08T05:33:38.628Z,94050.53
2022-12-08T05:36:06.908Z,94050.38
2022-12-08T05:38:34.011Z,94042.69
2022-12-08T05:41:00.717Z,94037.78
2022-12-08T05:43:27.535Z,94036.72
2022-12-08T05:45:54.341Z,94047.22
2022-12-08T05:48:21.921Z,94044.44
2022-12-08T05:50:50.748Z,94038.13
2022-12-08T05:53:20.449Z,94042.03
2022-12-08T05:55:47.804Z,94031.97
2022-12-08T05:58:20.921Z,94023.72
2022-12-08T06:00:48.886Z,94030.34
2022-12-08T06:03:17.994Z,94029.06
2022-12-08T06:05:46.306Z,94029.00
2022-12-08T06:08:13.646Z,94032.66
2022-12-08T06:10:42.428Z,94037.16
2022-12-08T06:13:09.174Z,94028.44
2022-12-08T06:15:38.638Z,94041.72
2022-12-08T06:18:07.153Z,94035.78
2022-12-08T06:20:36.073Z,94033.84
2022-12-08T06:23:03.870Z,94040.75
2022-12-08T06:25:30.796Z,94039.44
2022-12-08T06:27:57.533Z,94029.75
2022-12-08T06:30:24.232Z,94034.16
2022-12-08T06:32:51.076Z,94035.69
2022-12-08T06:35:17.875Z,94034.38
2022-12-08T06:37:44.565Z,94032.94
2022-12-08T06:40:11.897Z,94023.53
2022-12-08T06:42:44.233Z,94032.03
2022-12-08T06:45:13.002Z,94042.13
2022-12-08T06:47:40.148Z,94046.72
2022-12-08T06:50:10.412Z,94038.75
2022-12-08T06:52:44.067Z,94027.94
2022-12-08T06:55:35.284Z,94035.75
2022-12-08T06:58:00.940Z,94038.03
2022-12-08T07:00:27.607Z,94044.34
2022-12-08T07:02:54.460Z,94033.63
2022-12-08T07:05:21.286Z,94042.13
2022-12-08T07:07:48.028Z,94041.44
2022-12-08T07:10:14.760Z,94034.75
2022-12-08T07:12:41.425Z,94036.56
2022-12-08T07:15:08.781Z,94031.75
2022-12-08T07:17:36.186Z,94024.28
2022-12-08T07:20:03.846Z,94022.91
2022-12-08T07:22:30.906Z,94045.69
2022-12-08T07:24:57.616Z,94046.97
2022-12-08T07:27:24.418Z,94053.53
2022-12-08T07:29:51.637Z,94064.00
2022-12-08T07:32:18.378Z,94061.50
2022-12-08T07:34:47.277Z,94065.16
2022-12-08T07:37:14.294Z,94048.25
2022-12-08T07:39:41.475Z,94049.84
2022-12-08T07:42:08.578Z,94046.72
2022-12-08T07:44:38.132Z,94060.34
2022-12-08T07:47:05.117Z,94053.34
2022-12-08T07:49:31.886Z,94057.59
2022-12-08T07:51:58.705Z,94062.47
2022-12-08T07:54:25.351Z,94061.19
2022-12-08T07:56:52.882Z,94062.28
2022-12-08T07:59:21.738Z,94055.94
2022-12-08T08:02:05.076Z,94053.09
2022-12-08T08:04:37.103Z,94047.13
2022-12-08T08:07:03.871Z,94060.59
2022-12-08T08:09:30.607Z,94062.66
2022-12-08T08:12:28.899Z,94059.63
2022-12-08T08:14:44.337Z,94079.28
2022-12-08T08:17:11.741Z,94072.75
2022-12-08T08:19:38.663Z,94089.38
2022-12-08T08:22:05.406Z,94084.91
2022-12-08T08:24:32.160Z,94075.19
2022-12-08T08:26:58.961Z,94090.72
2022-12-08T08:29:25.927Z,94098.91
2022-12-08T08:31:53.639Z,94108.13
2022-12-08T08:34:20.393Z,94106.28
2022-12-08T08:36:47.293Z,94096.22
2022-12-08T08:39:14.432Z,94111.88
2022-12-08T08:41:41.690Z,94120.38
2022-12-08T08:44:08.843Z,94125.97
2022-12-08T08:46:35.681Z,94124.50
2022-12-08T08:49:02.637Z,94125.94
2022-12-08T08:51:29.368Z,94112.94
2022-12-08T08:53:57.304Z,94128.44
2022-12-08T08:56:24.326Z,94113.41
2022-12-08T08:58:53.587Z,94118.38
2022-12-08T09:01:24.781Z,94102.47
2022-12-08T09:03:52.705Z,94109.47
2022-12-08T09:06:20.482Z,94105.56
2022-12-08T09:08:48.186Z,94126.91
2022-12-08T09:11:15.410Z,94139.03
2022-12-08T09:13:42.411Z,94139.31
2022-12-08T09:16:11.105Z,94120.38
2022-12-08T09:18:39.024Z,94107.75
2022-12-08T09:21:09.013Z,94102.63
2022-12-08T09:23:38.102Z,94078.56
2022-12-08T09:26:05.743Z,94098.59
2022-12-08T09:28:33.033Z,94095.22
2022-12-08T09:31:00.302Z,94098.63
2022-12-08T09:33:27.784Z,94086.63
2022-12-08T09:35:54.698Z,94078.66
2022-12-08T09:38:21.832Z,94056.19
2022-12-08T09:40:53.381Z,94052.34
2022-12-08T09:44:00.592Z,94057.56
2022-12-08T09:46:30.656Z,94058.91
2022-12-08T09:49:00.843Z,94073.41
2022-12-08T09:51:33.925Z,94067.28
2022-12-08T09:54:09.410Z,94078.28
2022-12-08T09:56:38.553Z,94076.03
2022-12-08T09:59:24.590Z,94095.00
2022-12-08T10:01:52.067Z,94100.06
2022-12-08T10:04:32.027Z,94067.22
2022-12-08T10:07:21.020Z,94101.16
2022-12-08T10:10:25.396Z,94083.00
2022-12-08T10:13:11.685Z,94091.16
2022-12-08T10:16:04.084Z,94084.88
2022-12-08T10:18:33.059Z,94095.00
2022-12-08T10:21:18.927Z,94087.19
2022-12-08T10:23:52.288Z,94099.38
2022-12-08T10:26:23.375Z,94091.94
2022-12-08T10:28:51.122Z,94075.63
2022-12-08T10:31:25.131Z,94087.72
2022-12-08T10:34:13.660Z,94056.00
2022-12-08T10:36:47.990Z,94070.59
2022-12-08T10:39:33.259Z,94085.78
2022-12-08T10:42:15.607Z,94055.28
2022-12-08T10:44:57.340Z,94064.13
2022-12-08T10:47:27.101Z,94069.88
2022-12-08T10:50:21.227Z,94055.06
2022-12-08T10:53:01.020Z,94069.25
2022-12-08T10:55:29.725Z,94084.69
2022-12-08T10:57:56.407Z,94078.00
2022-12-08T11:00:28.476Z,94058.47
2022-12-08T11:03:01.395Z,94069.81
2022-12-08T11:05:34.952Z,94062.81
2022-12-08T11:08:02.896Z,94064.00
2022-12-08T11:10:44.831Z,94052.22
2022-12-08T11:13:21.550Z,94050.13
2022-12-08T11:15:49.468Z,94043.16
2022-12-08T11:18:28.653Z,94032.09
2022-12-08T11:20:59.818Z,94016.22
2022-12-08T11:23:28.395Z,93998.94
2022-12-08T11:26:02.837Z,93993.53
2022-12-08T11:28:29.935Z,93987.09
2022-12-08T11:31:07.849Z,93951.59
2022-12-08T11:33:34.803Z,93960.88
2022-12-08T11:36:12.915Z,93955.88
2022-12-08T11:38:46.434Z,93947.06
2022-12-08T11:41:17.970Z,93953.03
2022-12-08T11:43:44.917Z,93936.59
2022-12-08T11:46:25.341Z,93947.66
2022-12-08T11:49:06.786Z,93956.69
2022-12-08T11:51:38.185Z,93967.06
2022-12-08T11:54:34.266Z,93948.22
2022-12-08T11:57:03.153Z,93945.19
2022-12-08T11:59:34.666Z,93939.31
2022-12-08T12:02:04.769Z,93926.22
2022-12-08T12:04:40.703Z,93957.31
2022-12-08T12:07:26.644Z,93959.09
2022-12-08T12:10:16.885Z,93960.38
2022-12-08T12:13:05.401Z,93964.28
2022-12-08T12:15:41.262Z,93950.59
2022-12-08T12:18:30.341Z,93933.97
2022-12-08T12:20:57.055Z,93932.03
2022-12-08T12:23:38.481Z,93901.81
2022-12-08T12:26:08.500Z,93901.16
2022-12-08T12:28:58.075Z,93902.47
2022-12-08T12:31:41.625Z,93904.94
2022-12-08T12:34:14.708Z,93893.34
2022-12-08T12:37:19.129Z,93879.81
2022-12-08T12:39:52.402Z,93868.53
2022-12-08T12:42:49.210Z,93858.28
2022-12-08T12:45:22.231Z,93841.22
2022-12-08T12:48:10.114Z,93854.38
2022-12-08T12:50:46.942Z,93851.41
2022-12-08T12:53:16.724Z,93870.50
2022-12-08T12:55:46.625Z,93850.06
2022-12-08T12:58:28.794Z,93858.22
2022-12-08T13:01:08.799Z,93854.34
2022-12-08T13:03:42.367Z,93838.09
2022-12-08T13:06:15.094Z,93862.38
2022-12-08T13:08:53.929Z,93855.91
2022-12-08T13:11:26.152Z,93848.53
2022-12-08T13:13:58.771Z,93862.72
2022-12-08T13:16:28.819Z,93869.28
2022-12-08T13:19:05.829Z,93863.81
2022-12-08T13:21:38.702Z,93869.53
2022-12-08T13:24:17.921Z,93871.78
2022-12-08T13:27:03.767Z,93869.72
2022-12-08T13:29:37.717Z,93858.47
2022-12-08T13:32:04.472Z,93876.44
2022-12-08T13:35:00.289Z,93874.88
2022-12-08T13:37:53.972Z,93883.97
2022-12-08T13:40:30.423Z,93886.69
2022-12-08T13:43:28.245Z,93880.25
2022-12-08T13:46:57.607Z,93893.97
2022-12-08T13:50:31.285Z,93883.81
2022-12-08T13:57:30.805Z,93875.38
2022-12-08T14:00:14.828Z,93872.38
2022-12-08T14:02:47.997Z,93859.25
2022-12-08T14:05:34.865Z,93867.63
2022-12-08T14:08:30.105Z,93862.38
2022-12-08T14:11:05.268Z,93862.06
2022-12-08T14:13:33.968Z,93851.72
2022-12-08T14:16:00.946Z,93849.00
2022-12-08T14:18:30.965Z,93849.09
2022-12-08T14:21:21.369Z,93847.31
2022-12-08T14:23:48.776Z,93846.25
2022-12-08T14:26:15.947Z,93842.88
2022-12-08T14:28:45.263Z,93839.66
2022-12-08T14:31:14.762Z,93842.72
2022-12-08T14:33:43.200Z,93857.91
2022-12-08T14:36:14.602Z,93831.16
2022-12-08T14:38:42.971Z,93823.72
2022-12-08T14:41:12.552Z,93824.16
2022-12-08T14:43:41.394Z,93827.66
2022-12-08T14:46:22.709Z,93824.75
2022-12-08T14:48:49.901Z,93826.84
2022-12-08T14:51:19.323Z,93825.69
2022-12-08T14:53:47.829Z,93830.44
2022-12-08T14:56:23.235Z,93815.53
2022-12-08T14:59:03.192Z,93808.78
2022-12-08T15:01:31.100Z,93813.41
2022-12-08T15:04:07.037Z,93821.53
2022-12-08T15:06:34.042Z,93825.47
2022-12-08T15:09:17.130Z,93822.56
2022-12-08T15:11:44.040Z,93822.03
2022-12-08T15:14:36.109Z,93827.78
2022-12-08T15:17:03.774Z,93829.28
2022-12-08T15:19:33.332Z,93825.63
2022-12-08T15:22:19.673Z,93823.22
2022-12-08T15:24:46.481Z,93817.72
2022-12-08T15:27:21.704Z,93821.53
2022-12-08T15:29:48.902Z,93823.53
2022-12-08T15:32:23.960Z,93813.41
2022-12-08T15:34:50.973Z,93829.56
2022-12-08T15:37:22.597Z,93831.88
2022-12-08T15:39:49.837Z,93834.00
2022-12-08T15:42:16.784Z,93826.56
2022-12-08T15:44:43.972Z,93834.69
2022-12-08T15:47:16.767Z,93817.19
2022-12-08T15:49:44.182Z,93825.53
2022-12-08T15:52:28.985Z,93830.69
2022-12-08T15:54:55.930Z,93837.69
2022-12-08T15:58:10.934Z,93845.84
2022-12-08T16:00:51.324Z,93842.97
2022-12-08T16:07:12.470Z,93831.94
2022-12-08T16:09:17.605Z,93845.19
2022-12-08T16:12:07.267Z,93843.41
2022-12-08T16:17:21.797Z,93849.56
2022-12-08T16:19:49.582Z,93844.09
2022-12-08T16:25:21.704Z,93827.31
2022-12-08T16:28:12.301Z,93839.72
2022-12-08T16:30:40.162Z,93831.00
2022-12-08T16:33:07.063Z,93828.22
2022-12-08T16:35:34.101Z,93822.88
2022-12-08T16:38:01.109Z,93826.22
2022-12-08T16:40:29.151Z,93827.78
2022-12-08T16:42:55.898Z,93830.59
2022-12-08T16:45:25.470Z,93826.19
2022-12-08T16:48:00.646Z,93826.31
2022-12-08T16:50:30.934Z,93825.31
2022-12-08T16:53:06.979Z,93828.66
2022-12-08T16:55:34.497Z,93829.28
2022-12-08T16:58:02.709Z,93829.13
2022-12-08T17:00:30.990Z,93826.66
2022-12-08T17:02:59.102Z,93828.63
2022-12-08T17:05:26.840Z,93829.31
2022-12-08T17:07:54.903Z,93827.44
2022-12-08T17:10:25.519Z,93827.66
2022-12-08T17:12:53.357Z,93822.38
2022-12-08T17:15:23.033Z,93810.09
2022-12-08T17:17:50.402Z,93814.63
2022-12-08T17:20:23.005Z,93811.41
2022-12-08T17:22:50.483Z,93811.53
2022-12-08T17:25:17.675Z,93829.13
2022-12-08T17:27:44.447Z,93820.38
2022-12-08T17:30:15.555Z,93821.09
2022-12-08T17:32:43.945Z,93823.16
2022-12-08T17:35:11.787Z,93818.50
2022-12-08T17:37:40.976Z,93826.84
2022-12-08T17:40:08.616Z,93812.97
2022-12-08T17:42:35.514Z,93820.03
2022-12-08T17:45:03.172Z,93796.22
2022-12-08T17:47:30.074Z,93796.81
2022-12-08T17:49:57.365Z,93805.47
2022-12-08T17:52:24.940Z,93813.81
2022-12-08T17:54:51.726Z,93804.09
2022-12-08T17:57:18.472Z,93811.59
2022-12-08T17:59:45.286Z,93824.63
2022-12-08T18:02:12.578Z,93821.31
2022-12-08T18:04:40.047Z,93820.97
2022-12-08T18:07:06.783Z,93825.38
2022-12-08T18:09:34.130Z,93806.34
2022-12-08T18:12:00.888Z,93789.09
2022-12-08T18:14:28.541Z,93794.59
2022-12-08T18:16:55.455Z,93806.31
2022-12-08T18:19:22.672Z,93801.97
2022-12-08T18:21:49.490Z,93796.47
2022-12-08T18:24:19.603Z,93795.00
2022-12-08T18:26:47.153Z,93785.06
2022-12-08T18:29:14.760Z,93784.00
2022-12-08T18:31:41.519Z,93778.47
2022-12-08T18:34:08.365Z,93780.50
2022-12-08T18:36:35.171Z,93785.38
2022-12-08T18:39:07.192Z,93774.31
2022-12-08T18:41:37.136Z,93773.47
2022-12-08T18:44:03.989Z,93786.94
2022-12-08T18:46:30.792Z,93777.50
2022-12-08T18:48:58.127Z,93779.88
2022-12-08T18:51:25.434Z,93783.22
2022-12-08T18:53:53.142Z,93780.88
2022-12-08T18:56:32.040Z,93778.00
2022-12-08T18:59:03.835Z,93791.56
2022-12-08T19:01:36.754Z,93795.00
2022-12-08T19:06:54.208Z,93795.28
2022-12-08T19:09:21.426Z,93802.09
2022-12-08T19:11:48.775Z,93792.13
2022-12-08T19:14:15.753Z,93777.66
2022-12-08T19:16:42.663Z,93760.09
2022-12-08T19:19:09.889Z,93779.16
2022-12-08T19:21:44.548Z,93782.16
2022-12-08T19:24:13.313Z,93781.84
2022-12-08T19:26:40.783Z,93789.13
2022-12-08T19:29:07.631Z,93786.03
2022-12-08T19:31:35.143Z,93784.09
2022-12-08T19:34:01.905Z,93786.25
2022-12-08T19:36:35.473Z,93762.66
2022-12-08T19:39:23.583Z,93771.16
2022-12-08T19:42:09.410Z,93793.66
2022-12-08T19:44:54.461Z,93796.66
2022-12-08T19:47:24.456Z,93785.03
2022-12-08T19:49:53.944Z,93780.56
2022-12-08T19:52:21.093Z,93772.28
2022-12-08T19:54:47.942Z,93767.44
2022-12-08T19:57:16.310Z,93778.47
2022-12-08T19:59:43.178Z,93773.16
2022-12-08T20:02:11.357Z,93777.97
2022-12-08T20:04:38.456Z,93768.50
2022-12-08T20:07:05.719Z,93766.94
2022-12-08T20:09:33.218Z,93772.25
2022-12-08T20:12:02.004Z,93772.41
2022-12-08T20:14:29.134Z,93746.00
2022-12-08T20:16:56.555Z,93757.91
2022-12-08T20:19:23.357Z,93762.72
2022-12-08T20:21:50.274Z,93755.91
2022-12-08T20:24:17.443Z,93768.44
2022-12-08T20:26:45.159Z,93773.53
2022-12-08T20:29:17.160Z,93776.31
2022-12-08T20:31:45.619Z,93785.91
2022-12-08T20:34:17.740Z,93777.25
2022-12-08T20:36:46.768Z,93781.56
2022-12-08T20:39:16.615Z,93771.00
2022-12-08T20:41:45.628Z,93781.19
2022-12-08T20:44:12.872Z,93770.53
2022-12-08T20:46:41.781Z,93772.88
2022-12-08T20:49:10.570Z,93774.91
2022-12-08T20:51:37.301Z,93774.28
2022-12-08T20:54:09.886Z,93770.63
2022-12-08T20:56:36.795Z,93762.22
2022-12-08T20:59:03.910Z,93766.44
2022-12-08T21:01:32.147Z,93762.47
2022-12-08T21:03:59.223Z,93770.69
2022-12-08T21:06:28.209Z,93768.31
2022-12-08T21:08:55.174Z,93768.28
2022-12-08T21:11:22.200Z,93767.25
2022-12-08T21:13:49.385Z,93759.09
2022-12-08T21:16:17.398Z,93761.28
2022-12-08T21:18:44.353Z,93757.22
2022-12-08T21:21:14.316Z,93760.63
2022-12-08T21:23:43.180Z,93756.19
2022-12-08T21:26:19.083Z,93759.03
2022-12-08T21:28:47.902Z,93762.75
2022-12-08T21:31:19.398Z,93771.13
2022-12-08T21:33:47.698Z,93769.84
2022-12-08T21:36:17.753Z,93746.47
2022-12-08T21:38:46.890Z,93759.38
2022-12-08T21:41:37.961Z,93761.22
2022-12-08T21:44:06.346Z,93775.06
2022-12-08T21:46:33.287Z,93778.84
2022-12-08T21:49:01.220Z,93765.50
2022-12-08T21:51:28.651Z,93761.56
2022-12-08T21:53:55.383Z,93749.34
2022-12-08T21:56:22.813Z,93733.91
2022-12-08T21:58:50.076Z,93736.94
2022-12-08T22:01:17.612Z,93757.06
2022-12-08T22:03:44.665Z,93760.41
2022-12-08T22:06:13.841Z,93766.25
2022-12-08T22:08:41.825Z,93757.97
2022-12-08T22:11:11.381Z,93752.97
2022-12-08T22:13:39.777Z,93750.56
2022-12-08T22:16:09.462Z,93734.53
2022-12-08T22:18:37.188Z,93744.50
2022-12-08T22:21:17.136Z,93744.66
2022-12-08T22:23:44.505Z,93740.31
2022-12-08T22:26:12.643Z,93728.06
2022-12-08T22:28:41.665Z,93730.44
2022-12-08T22:31:15.081Z,93734.81
2022-12-08T22:33:42.850Z,93725.53
2022-12-08T22:36:19.784Z,93737.19
2022-12-08T22:38:48.324Z,93723.53
2022-12-08T22:41:17.245Z,93732.00
2022-12-08T22:43:45.314Z,93721.19
2022-12-08T22:46:18.142Z,93733.88
2022-12-08T22:48:45.640Z,93736.56
2022-12-08T22:51:14.244Z,93713.84
2022-12-08T22:53:41.822Z,93717.72
2022-12-08T22:56:11.791Z,93709.88
2022-12-08T22:58:39.929Z,93687.50
2022-12-08T23:01:08.465Z,93698.63
2022-12-08T23:03:35.604Z,93713.66
2022-12-08T23:06:13.034Z,93715.72
2022-12-08T23:08:40.708Z,93714.38
2022-12-08T23:11:07.854Z,93715.69
2022-12-08T23:13:34.653Z,93723.63
2022-12-08T23:16:02.737Z,93726.84
2022-12-08T23:18:29.503Z,93716.81
2022-12-08T23:20:56.264Z,93702.69
2022-12-08T23:23:23.169Z,93710.09
2022-12-08T23:25:49.965Z,93714.00
2022-12-08T23:28:18.125Z,93699.69
2022-12-08T23:30:44.964Z,93688.47
2022-12-08T23:33:12.083Z,93704.44
2022-12-08T23:35:39.823Z,93689.63
2022-12-08T23:38:07.102Z,93688.25
2022-12-08T23:40:34.266Z,93668.19
2022-12-08T23:43:01.225Z,93669.50
2022-12-08T23:45:29.747Z,93672.03
2022-12-08T23:47:56.604Z,93688.94
2022-12-08T23:50:23.999Z,93685.44
2022-12-08T23:52:50.934Z,93683.72
2022-12-08T23:55:18.909Z,93672.34
2022-12-08T23:57:45.589Z,93655.56
